Time;durP1;ratioP1;P1;durP2;ratioP2;P2;SDS_P1;SDS_P2;PMS_P1;PMS_P2;Temp;Humidity;BMP_temperature;BMP_pressure;BME280_temperature;BME280_humidity;BME280_pressure;Samples;Min_cycle;Max_cycle;Signal;HPM_P1;HPM_P2
2022/10/05 00:01:27;;;;;;;3.13;1.70;;;9.90;98.00;;;;;;5074580;28;20457;-66
2022/10/05 00:03:59;;;;;;;3.47;1.93;;;9.80;98.00;;;;;;5074898;28;20456;-66
2022/10/05 00:06:29;;;;;;;3.50;2.10;;;9.80;98.00;;;;;;5074922;28;20621;-66
2022/10/05 00:08:56;;;;;;;3.63;2.10;;;9.80;98.00;;;;;;5074775;28;20460;-66
2022/10/05 00:11:25;;;;;;;4.27;1.77;;;9.70;98.00;;;;;;5057018;28;20590;-66
2022/10/05 00:13:52;;;;;;;2.70;1.87;;;9.70;98.00;;;;;;5074649;28;20873;-66
2022/10/05 00:16:21;;;;;;;2.90;1.93;;;10.00;98.00;;;;;;5074938;28;20542;-66
2022/10/05 00:18:50;;;;;;;2.30;1.60;;;10.20;98.00;;;;;;5074621;28;20459;-66
2022/10/05 00:21:20;;;;;;;4.50;2.50;;;10.10;98.00;;;;;;5073814;28;20455;-66
2022/10/05 00:23:47;;;;;;;2.70;2.00;;;10.00;98.00;;;;;;5057216;28;20846;-66
2022/10/05 00:26:20;;;;;;;3.73;2.40;;;10.10;98.00;;;;;;5074472;28;20491;-66
2022/10/05 00:28:49;;;;;;;3.20;1.60;;;10.30;98.00;;;;;;5074518;28;20456;-66
2022/10/05 00:31:28;;;;;;;2.40;1.87;;;10.30;98.00;;;;;;5074702;28;20461;-66
2022/10/05 00:33:56;;;;;;;3.20;2.10;;;10.40;98.00;;;;;;5074675;28;20456;-66
2022/10/05 00:36:24;;;;;;;2.40;2.07;;;10.10;98.00;;;;;;5074626;28;20460;-66
2022/10/05 00:38:53;;;;;;;3.93;1.77;;;10.00;98.00;;;;;;5074238;28;20448;-66
2022/10/05 00:41:24;;;;;;;4.63;2.30;;;9.80;98.00;;;;;;5056783;28;21158;-66
2022/10/05 00:44:23;;;;;;;2.10;1.73;;;9.70;98.00;;;;;;5074372;28;20498;-66
2022/10/05 00:46:57;;;;;;;10.83;2.60;;;9.70;98.00;;;;;;5056524;28;20477;-66
2022/10/05 00:49:47;;;;;;;4.70;2.90;;;9.60;98.00;;;;;;5074653;28;20455;-67
2022/10/05 00:52:24;;;;;;;3.37;1.70;;;9.50;98.00;;;;;;5074040;28;20464;-66
2022/10/05 00:54:59;;;;;;;1.93;1.57;;;9.60;98.00;;;;;;5074124;28;20517;-66
2022/10/05 00:57:37;;;;;;;2.87;1.77;;;9.60;98.00;;;;;;5073763;28;20462;-66
2022/10/05 01:00:08;;;;;;;3.50;1.80;;;9.50;98.00;;;;;;5073934;28;20967;-66
2022/10/05 01:02:47;;;;;;;3.00;2.03;;;9.50;98.00;;;;;;5073794;28;20790;-67
2022/10/05 01:05:24;;;;;;;2.00;1.50;;;9.60;98.00;;;;;;5073863;28;20461;-66
2022/10/05 01:07:58;;;;;;;3.20;1.93;;;9.70;98.00;;;;;;5073558;28;20494;-66
2022/10/05 01:10:33;;;;;;;3.73;1.60;;;9.50;98.00;;;;;;5073852;28;20456;-66
2022/10/05 01:13:09;;;;;;;2.77;2.30;;;9.40;98.00;;;;;;5073671;28;20911;-66
2022/10/05 01:15:46;;;;;;;2.07;1.60;;;9.50;98.00;;;;;;5074025;28;20841;-66
2022/10/05 01:18:20;;;;;;;3.53;2.50;;;9.50;98.00;;;;;;5073500;28;20488;-66
2022/10/05 01:20:57;;;;;;;3.83;1.90;;;9.40;98.00;;;;;;5073716;28;20465;-66
2022/10/05 01:23:49;;;;;;;2.90;1.80;;;9.20;98.00;;;;;;5073539;28;20456;-66
2022/10/05 01:26:38;;;;;;;1.60;1.50;;;9.10;98.00;;;;;;5073598;28;20487;-66
2022/10/05 01:29:14;;;;;;;3.20;2.13;;;8.90;98.00;;;;;;5073314;28;20457;-66
2022/10/05 01:31:46;;;;;;;3.30;1.93;;;8.90;98.00;;;;;;5073464;28;21109;-66
2022/10/05 01:34:21;;;;;;;2.43;1.70;;;8.90;98.00;;;;;;5073288;28;20455;-66
2022/10/05 01:36:57;;;;;;;2.33;1.60;;;8.90;98.00;;;;;;5073436;28;20463;-66
2022/10/05 01:39:31;;;;;;;2.43;1.67;;;9.00;98.00;;;;;;5073401;28;21158;-66
2022/10/05 01:42:05;;;;;;;1.83;1.80;;;9.00;98.00;;;;;;5055467;28;20459;-67
2022/10/05 01:44:41;;;;;;;2.10;1.70;;;9.20;98.00;;;;;;5073259;28;20448;-66
2022/10/05 01:47:14;;;;;;;2.93;2.07;;;9.40;98.00;;;;;;5073002;28;20497;-66
2022/10/05 01:49:51;;;;;;;2.33;1.87;;;9.40;98.00;;;;;;5055420;28;20455;-66
2022/10/05 01:52:31;;;;;;;2.13;1.70;;;9.60;98.00;;;;;;5072918;28;20469;-66
2022/10/05 01:55:18;;;;;;;3.37;1.80;;;9.60;98.00;;;;;;5072945;28;20465;-66
2022/10/05 01:57:58;;;;;;;4.60;1.80;;;9.60;98.00;;;;;;5055845;28;20527;-66
2022/10/05 02:00:28;;;;;;;1.60;1.30;;;9.40;98.00;;;;;;5072642;28;20468;-66
2022/10/05 02:02:59;;;;;;;12.63;2.07;;;9.40;98.00;;;;;;5072541;28;20480;-66
2022/10/05 02:05:32;;;;;;;2.20;1.60;;;9.40;98.00;;;;;;5072572;28;20475;-66
2022/10/05 02:08:03;;;;;;;2.40;1.80;;;9.30;98.00;;;;;;5072146;28;21018;-66
2022/10/05 02:10:36;;;;;;;1.50;1.40;;;9.30;98.00;;;;;;5072477;28;20532;-66
2022/10/05 02:13:11;;;;;;;2.60;1.93;;;9.30;98.00;;;;;;5072512;28;20493;-66
2022/10/05 02:15:45;;;;;;;1.93;1.70;;;9.40;98.00;;;;;;5072527;28;20459;-66
2022/10/05 02:18:17;;;;;;;2.87;1.70;;;9.40;98.00;;;;;;5072461;28;20539;-66
2022/10/05 02:20:47;;;;;;;2.07;1.97;;;9.20;98.00;;;;;;5072752;28;20542;-66
2022/10/05 02:23:19;;;;;;;3.33;2.27;;;9.10;98.00;;;;;;5072420;28;20510;-66
2022/10/05 02:25:49;;;;;;;3.13;1.83;;;9.20;98.00;;;;;;5072471;28;20460;-66
2022/10/05 02:28:22;;;;;;;2.63;2.30;;;9.10;98.00;;;;;;5072287;28;20544;-66
2022/10/05 02:30:55;;;;;;;1.67;1.57;;;9.30;98.00;;;;;;5072619;28;20520;-66
2022/10/05 02:33:28;;;;;;;3.30;2.17;;;9.30;98.00;;;;;;5072211;28;21058;-66
2022/10/05 02:36:00;;;;;;;2.97;2.03;;;9.20;98.00;;;;;;5072386;28;20934;-66
2022/10/05 02:38:34;;;;;;;4.03;2.50;;;9.00;98.00;;;;;;5072172;28;20456;-66
2022/10/05 02:41:12;;;;;;;2.47;2.00;;;9.10;98.00;;;;;;5072115;28;20526;-66
2022/10/05 02:43:49;;;;;;;2.03;1.60;;;9.10;98.00;;;;;;5071818;28;20544;-66
2022/10/05 02:46:30;;;;;;;2.93;1.90;;;9.30;98.00;;;;;;5072094;28;20460;-66
2022/10/05 02:49:12;;;;;;;4.47;2.13;;;9.30;98.00;;;;;;5072287;28;20503;-66
2022/10/05 02:51:46;;;;;;;3.70;2.03;;;9.20;98.00;;;;;;5072175;28;20465;-66
2022/10/05 02:54:22;;;;;;;3.50;2.07;;;9.10;98.00;;;;;;5071868;28;20956;-66
2022/10/05 02:56:56;;;;;;;4.63;2.80;;;9.00;98.00;;;;;;5054368;28;20530;-66
2022/10/05 02:59:30;;;;;;;2.87;1.73;;;8.90;98.00;;;;;;5071851;28;20813;-66
2022/10/05 03:02:05;;;;;;;2.17;1.70;;;9.10;98.00;;;;;;5054238;28;20521;-66
2022/10/05 03:04:39;;;;;;;5.33;2.13;;;9.30;98.00;;;;;;5071790;28;20972;-66
2022/10/05 03:07:14;;;;;;;2.10;1.60;;;9.40;98.00;;;;;;5037888;28;20526;-66
2022/10/05 03:09:49;;;;;;;2.17;1.50;;;9.40;98.00;;;;;;5071911;28;20866;-66
2022/10/05 03:12:33;;;;;;;2.70;1.80;;;9.30;98.00;;;;;;5071664;28;20468;-66
2022/10/05 03:15:13;;;;;;;1.93;1.70;;;9.00;98.00;;;;;;5071901;28;20473;-66
2022/10/05 03:17:49;;;;;;;2.00;1.80;;;8.80;98.00;;;;;;5071494;28;20970;-66
2022/10/05 03:20:28;;;;;;;2.70;2.10;;;8.60;98.00;;;;;;5071755;28;20470;-66
2022/10/05 03:22:59;;;;;;;7.67;2.07;;;8.60;98.00;;;;;;5071885;28;20465;-66
2022/10/05 03:25:57;;;;;;;2.80;2.10;;;8.60;98.00;;;;;;5071680;28;20462;-66
2022/10/05 03:28:31;;;;;;;4.20;2.17;;;8.60;98.00;;;;;;5071550;28;20813;-66
2022/10/05 03:31:03;;;;;;;4.10;2.83;;;8.70;98.00;;;;;;5053995;28;20460;-66
2022/10/05 03:33:41;;;;;;;5.63;2.27;;;8.70;98.00;;;;;;5071756;28;20462;-66
2022/10/05 03:36:16;;;;;;;3.33;1.90;;;8.70;98.00;;;;;;5071822;28;20464;-66
2022/10/05 03:38:48;;;;;;;3.13;2.50;;;8.70;98.00;;;;;;5071554;28;20460;-66
2022/10/05 03:41:22;;;;;;;2.93;2.20;;;8.90;98.00;;;;;;5071795;28;20464;-66
2022/10/05 03:44:16;;;;;;;4.97;2.50;;;9.20;98.00;;;;;;5071960;28;20966;-66
2022/10/05 03:47:02;;;;;;;2.23;1.73;;;9.20;98.00;;;;;;5038988;28;20488;-66
2022/10/05 03:50:02;;;;;;;2.90;2.03;;;9.10;98.00;;;;;;5071641;28;20463;-66
2022/10/05 03:52:36;;;;;;;1.83;1.53;;;9.00;98.00;;;;;;5053314;28;20464;-66
2022/10/05 03:55:16;;;;;;;3.57;2.10;;;8.80;98.00;;;;;;5072298;28;20463;-66
2022/10/05 03:57:46;;;;;;;2.13;1.40;;;8.60;98.00;;;;;;5075168;28;20499;-66
2022/10/05 04:00:17;;;;;;;2.90;1.80;;;8.50;98.00;;;;;;5075243;28;20464;-66
2022/10/05 04:02:52;;;;;;;2.30;1.70;;;8.60;98.00;;;;;;5057378;28;20467;-66
2022/10/05 04:05:23;;;;;;;2.07;1.53;;;8.80;98.00;;;;;;5074834;28;20462;-66
2022/10/05 04:07:56;;;;;;;1.90;1.63;;;8.90;98.00;;;;;;5074781;28;20484;-66
2022/10/05 04:10:27;;;;;;;2.90;1.80;;;9.10;98.00;;;;;;5074861;28;20467;-66
2022/10/05 04:13:01;;;;;;;2.37;1.80;;;9.10;98.00;;;;;;5074767;28;20452;-66
2022/10/05 04:15:33;;;;;;;3.50;2.40;;;8.90;98.00;;;;;;5074752;28;20881;-66
2022/10/05 04:18:04;;;;;;;1.50;1.40;;;8.70;98.00;;;;;;5074675;28;20462;-66
2022/10/05 04:20:36;;;;;;;4.30;2.20;;;8.60;98.00;;;;;;5074705;28;20468;-66
2022/10/05 04:23:13;;;;;;;2.93;2.10;;;8.30;98.00;;;;;;5074493;28;20465;-66
2022/10/05 04:25:44;;;;;;;1.60;1.40;;;8.30;98.00;;;;;;5074634;28;20461;-66
2022/10/05 04:28:16;;;;;;;2.20;1.73;;;8.40;98.00;;;;;;5074645;28;20489;-66
2022/10/05 04:30:48;;;;;;;2.40;1.70;;;8.40;98.00;;;;;;5074880;28;20800;-66
2022/10/05 04:33:15;;;;;;;3.77;2.17;;;8.40;98.00;;;;;;5074483;28;20973;-66
2022/10/05 04:36:04;;;;;;;2.13;1.70;;;8.30;98.00;;;;;;5074743;28;20462;-66
2022/10/05 04:39:00;;;;;;;3.77;1.90;;;8.30;98.00;;;;;;5056540;28;20452;-66
2022/10/05 04:41:41;;;;;;;2.97;2.07;;;8.40;98.00;;;;;;5074632;28;20519;-66
2022/10/05 04:44:34;;;;;;;1.90;1.83;;;8.30;98.00;;;;;;5074516;28;20873;-66
2022/10/05 04:47:19;;;;;;;4.13;2.33;;;8.50;98.00;;;;;;5074571;28;20485;-66
2022/10/05 04:50:12;;;;;;;7.60;2.00;;;8.50;98.00;;;;;;5074514;28;20952;-66
2022/10/05 04:52:51;;;;;;;4.07;2.00;;;8.50;98.00;;;;;;5057805;28;20460;-66
2022/10/05 04:55:29;;;;;;;2.77;1.83;;;8.50;98.00;;;;;;5074412;28;20430;-66
2022/10/05 04:58:08;;;;;;;4.77;2.10;;;8.40;98.00;;;;;;5073731;28;20459;-66
2022/10/05 05:00:47;;;;;;;2.30;1.90;;;8.50;98.00;;;;;;5073707;28;20448;-66
2022/10/05 05:03:40;;;;;;;1.77;1.47;;;8.60;98.00;;;;;;5073798;28;20456;-66
2022/10/05 05:06:21;;;;;;;2.90;1.77;;;8.50;98.00;;;;;;5049771;28;20468;-66
2022/10/05 05:09:15;;;;;;;3.23;2.03;;;8.40;98.00;;;;;;5073762;28;20490;-66
2022/10/05 05:12:05;;;;;;;1.97;1.63;;;8.20;98.00;;;;;;5045426;28;20454;-66
2022/10/05 05:15:01;;;;;;;2.17;1.70;;;8.20;98.00;;;;;;5071208;28;20461;-66
2022/10/05 05:17:48;;;;;;;2.80;1.70;;;8.30;98.00;;;;;;5073632;28;20464;-66
2022/10/05 05:20:22;;;;;;;5.07;2.07;;;8.10;98.00;;;;;;5073728;28;20452;-66
2022/10/05 05:22:53;;;;;;;2.50;1.90;;;8.30;98.00;;;;;;5073503;28;20476;-66
2022/10/05 05:25:32;;;;;;;1.90;1.53;;;8.60;98.00;;;;;;5073558;28;20547;-66
2022/10/05 05:28:15;;;;;;;2.20;1.77;;;8.50;98.00;;;;;;5073405;28;20484;-66
2022/10/05 05:30:48;;;;;;;3.07;2.03;;;8.60;98.00;;;;;;5073471;28;20466;-66
2022/10/05 05:33:21;;;;;;;2.13;1.60;;;8.60;98.00;;;;;;5073553;28;20465;-66
2022/10/05 05:36:18;;;;;;;1.87;1.70;;;8.40;98.00;;;;;;5056111;28;20883;-66
2022/10/05 05:38:54;;;;;;;2.80;2.03;;;8.20;98.00;;;;;;5073329;28;20464;-66
2022/10/05 05:41:27;;;;;;;2.90;1.90;;;8.20;98.00;;;;;;5056375;28;20460;-66
2022/10/05 05:44:08;;;;;;;1.50;1.30;;;8.20;98.00;;;;;;5073402;28;20456;-66
2022/10/05 05:46:40;;;;;;;3.03;1.63;;;8.00;98.00;;;;;;5055777;28;20459;-66
2022/10/05 05:49:16;;;;;;;2.70;1.73;;;8.10;98.00;;;;;;5055370;28;20494;-66
2022/10/05 05:51:48;;;;;;;3.50;2.53;;;8.10;98.00;;;;;;5072641;28;20471;-66
2022/10/05 05:54:25;;;;;;;4.30;1.60;;;8.10;98.00;;;;;;5072958;28;20458;-66
2022/10/05 05:56:58;;;;;;;1.73;1.57;;;8.10;98.00;;;;;;5054869;28;20467;-66
2022/10/05 05:59:33;;;;;;;2.03;1.47;;;8.30;98.00;;;;;;5072202;28;21031;-66
2022/10/05 06:02:05;;;;;;;2.37;1.60;;;8.20;98.00;;;;;;5072008;28;20856;-66
2022/10/05 06:04:39;;;;;;;2.67;1.60;;;8.20;98.00;;;;;;5072077;28;20449;-66
2022/10/05 06:07:11;;;;;;;1.70;1.30;;;8.20;98.00;;;;;;5072044;28;20464;-66
2022/10/05 06:09:43;;;;;;;3.03;2.00;;;8.20;98.00;;;;;;5071826;28;20457;-66
2022/10/05 06:12:14;;;;;;;2.70;2.10;;;8.20;98.00;;;;;;5072063;28;20528;-66
2022/10/05 06:14:46;;;;;;;1.80;1.50;;;8.30;98.00;;;;;;5071736;28;20587;-63
2022/10/05 06:17:18;;;;;;;1.87;1.43;;;8.30;98.00;;;;;;5071472;28;20532;-63
2022/10/05 06:19:47;;;;;;;2.10;1.63;;;8.30;98.00;;;;;;5071497;28;20461;-63
2022/10/05 06:22:22;;;;;;;3.07;1.70;;;8.30;98.00;;;;;;5054076;28;20549;-63
2022/10/05 06:25:00;;;;;;;2.50;1.57;;;8.30;98.00;;;;;;5071606;28;20558;-63
2022/10/05 06:27:35;;;;;;;2.80;1.70;;;8.40;98.00;;;;;;5071750;28;20878;-63
2022/10/05 06:30:12;;;;;;;3.30;1.50;;;8.50;98.00;;;;;;5055164;28;20490;-63
2022/10/05 06:32:54;;;;;;;2.20;1.93;;;8.50;98.00;;;;;;5071577;28;20483;-63
2022/10/05 06:35:34;;;;;;;2.20;1.63;;;8.40;98.00;;;;;;5069950;28;20455;-63
2022/10/05 06:38:21;;;;;;;2.00;1.60;;;8.40;98.00;;;;;;5071466;28;20465;-63
2022/10/05 06:40:59;;;;;;;3.80;2.47;;;8.30;98.00;;;;;;5071227;28;20460;-63
2022/10/05 06:43:43;;;;;;;3.70;1.90;;;8.20;98.00;;;;;;5053716;28;21036;-63
2022/10/05 06:46:19;;;;;;;6.80;2.50;;;8.20;98.00;;;;;;5071473;28;20467;-63
2022/10/05 06:49:00;;;;;;;5.30;2.53;;;8.30;98.00;;;;;;5071541;28;20823;-64
2022/10/05 06:51:35;;;;;;;1.80;1.80;;;8.40;98.00;;;;;;5071724;28;20459;-63
2022/10/05 06:54:11;;;;;;;4.73;2.30;;;8.50;98.00;;;;;;5071334;28;20997;-63
2022/10/05 06:56:45;;;;;;;4.13;2.67;;;8.60;98.00;;;;;;5071444;28;20459;-63
2022/10/05 06:59:21;;;;;;;3.83;2.03;;;8.70;98.00;;;;;;5071433;28;20504;-63
2022/10/05 07:01:59;;;;;;;3.00;2.20;;;8.80;98.00;;;;;;5071399;28;20512;-63
2022/10/05 07:04:49;;;;;;;3.43;2.27;;;8.80;98.00;;;;;;5071203;28;20464;-64
2022/10/05 07:07:23;;;;;;;3.10;2.77;;;8.90;98.00;;;;;;5071471;28;20469;-63
2022/10/05 07:10:02;;;;;;;4.93;2.80;;;9.00;98.00;;;;;;5071307;28;20456;-63
2022/10/05 07:12:49;;;;;;;4.67;2.50;;;8.90;98.00;;;;;;5070999;28;20460;-64
2022/10/05 07:15:35;;;;;;;2.20;1.70;;;9.10;98.00;;;;;;5071086;28;20897;-63
2022/10/05 07:18:30;;;;;;;6.20;2.00;;;9.20;98.00;;;;;;5051851;28;20692;-63
2022/10/05 07:21:05;;;;;;;3.90;1.70;;;9.10;98.00;;;;;;5060419;28;20561;-65
2022/10/05 07:23:47;;;;;;;10.50;2.23;;;9.10;98.00;;;;;;5068536;28;20611;-64
2022/10/05 07:26:21;;;;;;;4.50;1.80;;;9.20;98.00;;;;;;5068692;28;20450;-65
2022/10/05 07:28:55;;;;;;;3.53;2.00;;;9.20;98.00;;;;;;5069070;28;20490;-63
2022/10/05 07:31:29;;;;;;;2.70;2.40;;;9.30;98.00;;;;;;5072550;28;20466;-63
2022/10/05 07:34:06;;;;;;;4.77;2.33;;;9.30;98.00;;;;;;5072550;28;20970;-63
2022/10/05 07:39:36;;;;;;;4.23;2.67;;;9.70;98.00;;;;;;5073055;28;20446;-64
2022/10/05 07:42:10;;;;;;;2.60;2.20;;;9.80;98.00;;;;;;5072541;28;20525;-63
2022/10/05 07:44:42;;;;;;;3.57;2.03;;;9.80;98.00;;;;;;5072167;28;20473;-64
2022/10/05 07:47:17;;;;;;;4.03;2.10;;;9.80;98.00;;;;;;5071852;28;20487;-64
2022/10/05 07:49:52;;;;;;;4.00;2.33;;;9.90;98.00;;;;;;5070497;28;20537;-64
2022/10/05 07:52:26;;;;;;;2.20;1.63;;;9.90;98.00;;;;;;5072430;28;20462;-64
2022/10/05 07:55:02;;;;;;;4.57;2.33;;;10.00;98.00;;;;;;5072036;28;20465;-63
2022/10/05 07:57:38;;;;;;;5.57;2.43;;;10.20;98.00;;;;;;5072236;28;20460;-64
2022/10/05 08:00:12;;;;;;;4.97;2.40;;;10.30;98.00;;;;;;5071882;28;20521;-64
2022/10/05 08:02:45;;;;;;;3.70;2.20;;;10.50;98.00;;;;;;5072023;28;20846;-64
2022/10/05 08:05:21;;;;;;;3.33;2.40;;;10.60;98.00;;;;;;5072121;28;20453;-65
2022/10/05 08:07:54;;;;;;;2.80;2.30;;;10.60;98.00;;;;;;5072065;28;20463;-64
2022/10/05 08:10:30;;;;;;;3.60;2.30;;;10.80;98.00;;;;;;5072425;28;20462;-65
2022/10/05 08:13:07;;;;;;;4.97;2.50;;;11.00;98.00;;;;;;5071640;28;20777;-64
2022/10/05 08:15:41;;;;;;;4.80;2.40;;;11.10;98.00;;;;;;5071726;28;20475;-64
2022/10/05 08:18:19;;;;;;;3.43;2.43;;;11.20;98.00;;;;;;5071659;28;20545;-64
2022/10/05 08:20:52;;;;;;;6.77;2.43;;;11.30;98.00;;;;;;5071622;28;20459;-63
2022/10/05 08:23:25;;;;;;;2.57;1.80;;;11.50;98.00;;;;;;5054338;28;20458;-64
2022/10/05 08:26:05;;;;;;;4.57;2.60;;;11.60;98.00;;;;;;5071778;28;20457;-63
2022/10/05 08:28:38;;;;;;;4.50;2.40;;;11.80;98.00;;;;;;5071381;28;20492;-64
2022/10/05 08:31:14;;;;;;;2.17;1.73;;;11.90;98.00;;;;;;5071388;28;20490;-64
2022/10/05 08:33:51;;;;;;;2.17;1.80;;;12.10;98.00;;;;;;5071574;28;20464;-64
2022/10/05 08:36:31;;;;;;;2.57;1.87;;;12.30;98.00;;;;;;5071233;28;20491;-64
2022/10/05 08:39:03;;;;;;;2.70;1.73;;;12.40;98.00;;;;;;5070982;28;20563;-64
2022/10/05 08:42:18;;;;;;;2.20;1.80;;;12.50;98.00;;;;;;5070755;28;21006;-64
2022/10/05 08:45:15;;;;;;;2.50;1.90;;;12.70;98.00;;;;;;5009240;28;20466;-64
2022/10/05 08:48:08;;;;;;;2.93;1.80;;;13.00;98.00;;;;;;5003416;28;20474;-62
2022/10/05 08:51:03;;;;;;;6.20;2.13;;;13.20;98.00;;;;;;5058069;28;20458;-63
2022/10/05 08:54:02;;;;;;;3.00;1.97;;;14.00;98.00;;;;;;5053310;28;21019;-65
2022/10/05 08:56:41;;;;;;;5.93;2.20;;;14.70;98.00;;;;;;5071177;28;20566;-64
2022/10/05 08:59:59;;;;;;;3.60;2.23;;;15.40;98.00;;;;;;5071090;28;20462;-63
2022/10/05 09:02:36;;;;;;;7.47;4.63;;;16.00;98.00;;;;;;4977376;28;20471;-64
2022/10/05 09:05:28;;;;;;;3.00;2.33;;;16.50;98.00;;;;;;5055452;28;20462;-64
2022/10/05 09:08:19;;;;;;;6.57;3.07;;;16.90;98.00;;;;;;5070743;28;20968;-65
2022/10/05 09:11:10;;;;;;;3.93;2.30;;;16.90;98.00;;;;;;5071156;28;20547;-66
2022/10/05 09:14:06;;;;;;;5.40;3.07;;;16.70;98.00;;;;;;5070655;28;20815;-64
2022/10/05 09:16:52;;;;;;;4.67;2.50;;;16.40;98.00;;;;;;5070273;28;20486;-64
2022/10/05 09:19:51;;;;;;;4.63;2.30;;;16.30;98.00;;;;;;5070826;28;20456;-64
2022/10/05 09:22:34;;;;;;;2.73;2.10;;;16.30;98.00;;;;;;5064894;28;21016;-65
2022/10/05 09:25:22;;;;;;;5.20;2.40;;;16.30;98.00;;;;;;5070475;28;20559;-65
2022/10/05 09:27:55;;;;;;;3.80;2.20;;;16.50;98.00;;;;;;5070225;28;20488;-65
2022/10/05 09:30:27;;;;;;;3.37;2.37;;;16.60;98.00;;;;;;5070357;28;20583;-65
2022/10/05 09:33:31;;;;;;;7.63;2.50;;;16.70;98.00;;;;;;5070484;28;20457;-65
2022/10/05 09:36:31;;;;;;;5.77;2.67;;;17.00;98.00;;;;;;5065240;28;20999;-65
2022/10/05 09:39:35;;;;;;;3.40;2.40;;;17.10;98.00;;;;;;5066119;28;20986;-65
2022/10/05 09:42:55;;;;;;;5.50;2.47;;;17.30;98.00;;;;;;5082677;28;20454;-64
2022/10/05 09:45:55;;;;;;;4.10;2.67;;;17.30;98.00;;;;;;5088625;28;20473;-67
2022/10/05 09:49:01;;;;;;;5.17;2.83;;;17.70;98.00;;;;;;5075825;28;20517;-65
2022/10/05 09:52:02;;;;;;;3.87;2.30;;;18.00;98.00;;;;;;5074669;28;20466;-65
2022/10/05 09:55:14;;;;;;;5.50;3.07;;;18.30;98.00;;;;;;5081137;28;20451;-65
2022/10/05 09:58:21;;;;;;;4.07;2.70;;;18.40;98.00;;;;;;5093020;28;20455;-64
2022/10/05 10:01:06;;;;;;;3.70;2.30;;;18.60;98.00;;;;;;5092448;28;20472;-64
2022/10/05 10:04:23;;;;;;;4.03;2.47;;;18.90;98.00;;;;;;5092329;28;20490;-66
2022/10/05 10:07:12;;;;;;;5.73;2.67;;;19.20;98.00;;;;;;5092313;28;20542;-66
2022/10/05 10:09:52;;;;;;;6.40;2.90;;;19.50;98.00;;;;;;5092120;28;20487;-65
2022/10/05 10:12:47;;;;;;;4.90;3.03;;;19.70;98.00;;;;;;5092407;28;20460;-65
2022/10/05 10:15:40;;;;;;;4.73;2.80;;;19.70;98.00;;;;;;5092004;28;20463;-65
2022/10/05 10:18:44;;;;;;;4.73;2.87;;;20.00;98.00;;;;;;5092282;28;20834;-65
2022/10/05 10:21:32;;;;;;;3.90;2.23;;;20.30;98.00;;;;;;5074878;28;20467;-65
2022/10/05 10:24:15;;;;;;;4.60;2.90;;;20.40;98.00;;;;;;5091918;28;20467;-64
2022/10/05 10:27:09;;;;;;;4.50;2.70;;;20.60;98.00;;;;;;5074778;28;20455;-65
2022/10/05 10:30:24;;;;;;;3.53;2.50;;;20.80;98.00;;;;;;5091766;28;20545;-65
2022/10/05 10:33:26;;;;;;;5.40;2.87;;;21.10;98.00;;;;;;5091564;28;20542;-66
2022/10/05 10:35:59;;;;;;;5.50;3.03;;;21.30;98.00;;;;;;5091781;28;20975;-65
2022/10/05 10:38:32;;;;;;;3.50;2.20;;;21.60;98.00;;;;;;5091683;28;20467;-65
2022/10/05 10:41:23;;;;;;;4.33;2.30;;;21.80;98.00;;;;;;5091635;28;20939;-65
2022/10/05 10:44:29;;;;;;;3.50;2.30;;;22.00;98.00;;;;;;5092252;28;20606;-65
2022/10/05 10:47:19;;;;;;;3.10;2.10;;;22.20;98.00;;;;;;5092887;28;20452;-66
2022/10/05 10:50:06;;;;;;;3.20;2.40;;;22.40;98.00;;;;;;5091798;28;20488;-65
2022/10/05 10:52:52;;;;;;;3.93;2.47;;;22.60;98.00;;;;;;5091751;28;20452;-66
2022/10/05 10:55:34;;;;;;;3.80;2.10;;;22.90;98.00;;;;;;5091661;28;20475;-66
2022/10/05 10:58:51;;;;;;;4.57;2.30;;;23.20;98.00;;;;;;5091748;28;20542;-65
2022/10/05 11:01:30;;;;;;;3.10;2.10;;;23.50;98.00;;;;;;5065266;28;20989;-66
2022/10/05 11:04:27;;;;;;;3.53;2.43;;;23.70;98.00;;;;;;5073211;28;20460;-65
2022/10/05 11:07:27;;;;;;;3.77;2.40;;;23.90;98.00;;;;;;5091420;28;20452;-66
2022/10/05 11:10:13;;;;;;;3.10;2.40;;;24.20;98.00;;;;;;5064486;28;20503;-66
2022/10/05 11:13:18;;;;;;;4.13;2.73;;;24.50;96.80;;;;;;5091402;28;20978;-66
2022/10/05 11:16:13;;;;;;;3.40;2.20;;;24.60;96.30;;;;;;5081219;28;20779;-65
2022/10/05 11:19:11;;;;;;;3.13;1.83;;;24.80;94.70;;;;;;5091355;28;20455;-66
2022/10/05 11:21:47;;;;;;;2.93;2.17;;;25.00;95.10;;;;;;5091619;28;20857;-65
2022/10/05 11:24:53;;;;;;;3.57;2.10;;;25.30;95.20;;;;;;5091147;28;20467;-66
2022/10/05 11:27:42;;;;;;;3.80;2.40;;;25.40;96.70;;;;;;5084193;28;20456;-66
2022/10/05 11:30:26;;;;;;;3.23;2.20;;;25.40;94.50;;;;;;5091314;28;21071;-66
2022/10/05 11:33:30;;;;;;;3.30;2.00;;;25.60;92.30;;;;;;5091179;28;20683;-66
2022/10/05 11:36:45;;;;;;;2.43;1.90;;;25.70;89.90;;;;;;5091174;28;20462;-67
2022/10/05 11:39:35;;;;;;;2.57;2.20;;;25.70;90.20;;;;;;5090862;28;20459;-66
2022/10/05 11:42:27;;;;;;;3.20;1.80;;;26.10;91.80;;;;;;5090874;28;20448;-65
2022/10/05 11:45:23;;;;;;;2.60;2.13;;;26.40;90.90;;;;;;5090965;28;20456;-64
2022/10/05 11:48:25;;;;;;;2.90;2.03;;;26.70;91.10;;;;;;5090991;28;21007;-65
2022/10/05 11:51:23;;;;;;;3.80;2.40;;;26.80;88.90;;;;;;5070299;28;20479;-65
2022/10/05 11:53:58;;;;;;;2.37;2.00;;;27.00;87.30;;;;;;5075160;28;20962;-65
2022/10/05 11:56:30;;;;;;;2.93;2.00;;;27.30;88.40;;;;;;5091175;28;20458;-65
2022/10/05 11:59:03;;;;;;;2.57;2.00;;;27.10;86.80;;;;;;5091219;28;20965;-65
2022/10/05 12:01:39;;;;;;;2.60;2.20;;;27.00;87.30;;;;;;5091290;28;20835;-65
2022/10/05 12:04:16;;;;;;;2.80;1.83;;;27.20;87.70;;;;;;5090889;28;20456;-65
2022/10/05 12:07:06;;;;;;;2.70;2.00;;;27.10;88.40;;;;;;5090966;28;20950;-65
2022/10/05 12:12:38;;;;;;;3.17;2.13;;;27.40;85.90;;;;;;5089781;28;20463;-65
2022/10/05 12:15:19;;;;;;;2.77;2.23;;;27.70;86.60;;;;;;5090767;28;20471;-65
2022/10/05 12:17:52;;;;;;;2.67;2.10;;;27.60;87.10;;;;;;5094327;28;20459;-65
2022/10/05 12:20:25;;;;;;;3.97;2.20;;;27.90;87.00;;;;;;5094348;28;20460;-65
2022/10/05 12:22:59;;;;;;;2.73;2.10;;;28.10;85.00;;;;;;5094381;28;20505;-65
2022/10/05 12:25:31;;;;;;;2.37;1.87;;;28.20;86.80;;;;;;5094306;28;20805;-65
2022/10/05 12:28:04;;;;;;;2.77;1.93;;;28.40;87.00;;;;;;5094110;28;20459;-65
2022/10/05 12:30:59;;;;;;;8.47;2.67;;;28.60;85.40;;;;;;5094377;28;20483;-64
2022/10/05 12:33:33;;;;;;;3.00;2.30;;;28.70;85.00;;;;;;5077236;28;20456;-64
2022/10/05 12:36:06;;;;;;;3.93;2.27;;;28.90;84.60;;;;;;5076188;28;20504;-65
2022/10/05 12:38:39;;;;;;;3.73;2.17;;;28.60;84.80;;;;;;5094097;28;20478;-65
2022/10/05 12:41:14;;;;;;;2.73;2.10;;;28.70;83.00;;;;;;5094029;28;20787;-65
2022/10/05 12:43:58;;;;;;;2.97;2.20;;;28.70;84.20;;;;;;5094051;28;20483;-65
2022/10/05 12:46:37;;;;;;;2.47;2.17;;;28.80;84.10;;;;;;5094217;28;20505;-65
2022/10/05 12:49:36;;;;;;;2.33;2.00;;;28.80;84.60;;;;;;5093802;28;20506;-65
2022/10/05 12:52:06;;;;;;;2.97;2.17;;;29.20;85.50;;;;;;5093841;28;20871;-64
2022/10/05 12:54:46;;;;;;;2.47;2.00;;;29.30;83.20;;;;;;5093795;28;20459;-65
2022/10/05 12:57:22;;;;;;;2.57;2.00;;;29.40;82.20;;;;;;5060631;28;20519;-65
2022/10/05 12:59:58;;;;;;;3.70;2.30;;;29.60;83.60;;;;;;5094061;28;20456;-65
2022/10/05 13:02:37;;;;;;;2.00;1.80;;;29.70;82.00;;;;;;5094149;28;20464;-65
2022/10/05 13:05:20;;;;;;;2.63;2.20;;;29.70;82.60;;;;;;5093719;28;21184;-65
2022/10/05 13:08:09;;;;;;;3.10;2.10;;;29.70;81.40;;;;;;5093601;28;20851;-65
2022/10/05 13:10:41;;;;;;;2.93;2.37;;;29.50;81.40;;;;;;5093409;28;20456;-65
2022/10/05 13:13:34;;;;;;;4.13;2.00;;;29.40;81.90;;;;;;5093430;28;20464;-65
2022/10/05 13:16:10;;;;;;;2.90;2.23;;;29.10;82.90;;;;;;5093540;28;20475;-65
2022/10/05 13:18:49;;;;;;;2.97;2.10;;;29.30;82.30;;;;;;5093324;28;20474;-65
2022/10/05 13:21:19;;;;;;;2.53;2.00;;;29.10;82.30;;;;;;5093335;28;21036;-65
2022/10/05 13:23:55;;;;;;;2.13;2.00;;;29.30;83.30;;;;;;5093337;28;20452;-65
2022/10/05 13:26:29;;;;;;;2.30;2.03;;;29.40;79.20;;;;;;5092960;28;20625;-65
2022/10/05 13:29:02;;;;;;;3.63;2.33;;;29.50;80.80;;;;;;5092996;28;20480;-65
2022/10/05 13:31:37;;;;;;;4.50;1.97;;;29.70;81.20;;;;;;5093247;28;20487;-65
2022/10/05 13:34:14;;;;;;;2.03;1.83;;;29.70;81.00;;;;;;5092965;28;20454;-65
2022/10/05 13:36:56;;;;;;;2.30;1.90;;;29.70;82.00;;;;;;5075098;28;20513;-65
2022/10/05 13:39:44;;;;;;;2.30;2.10;;;29.90;82.30;;;;;;5092821;28;20840;-66
2022/10/05 13:42:15;;;;;;;2.40;2.20;;;30.00;81.00;;;;;;5093003;28;20817;-65
2022/10/05 13:44:49;;;;;;;3.30;2.13;;;30.10;81.20;;;;;;5093022;28;20455;-63
2022/10/05 13:47:27;;;;;;;3.23;2.27;;;30.10;80.10;;;;;;5092653;28;20973;-63
2022/10/05 13:49:59;;;;;;;2.77;2.20;;;30.20;79.60;;;;;;5092587;28;20488;-63
2022/10/05 13:52:37;;;;;;;3.37;2.30;;;30.30;80.10;;;;;;5092866;28;20454;-62
2022/10/05 13:55:15;;;;;;;3.97;2.33;;;30.40;81.50;;;;;;5092390;28;20462;-62
2022/10/05 13:57:52;;;;;;;5.07;2.90;;;30.80;81.00;;;;;;5093025;28;20460;-61
2022/10/05 14:00:22;;;;;;;3.07;2.17;;;31.00;80.50;;;;;;5092669;28;20455;-62
2022/10/05 14:02:55;;;;;;;2.83;2.00;;;31.20;79.70;;;;;;5092293;28;20832;-62
2022/10/05 14:05:24;;;;;;;2.27;2.10;;;31.40;79.00;;;;;;5092820;28;20448;-62
2022/10/05 14:07:54;;;;;;;2.27;2.03;;;31.60;78.30;;;;;;5092430;28;20459;-61